createdAt,value
2018-12-18T00:02:22.987Z,96458.83
2018-12-18T00:04:51.498Z,96459.66
2018-12-18T00:07:20.053Z,96457.12
2018-12-18T00:09:48.694Z,96459.86
2018-12-18T00:12:17.227Z,96458.74
2018-12-18T00:14:45.755Z,96464.14
2018-12-18T00:17:15.213Z,96461.56
2018-12-18T00:19:43.740Z,96462.14
2018-12-18T00:22:12.275Z,96457.70
2018-12-18T00:24:40.821Z,96465.44
2018-12-18T00:27:09.355Z,96462.75
2018-12-18T00:29:38.914Z,96466.03
2018-12-18T00:32:07.452Z,96468.92
2018-12-18T00:34:35.975Z,96469.05
2018-12-18T00:37:04.522Z,96459.36
2018-12-18T00:39:33.050Z,96462.97
2018-12-18T00:42:01.554Z,96456.44
2018-12-18T00:44:31.058Z,96455.83
2018-12-18T00:46:59.574Z,96454.02
2018-12-18T00:49:28.109Z,96455.59
2018-12-18T00:51:56.638Z,96457.40
2018-12-18T00:54:27.149Z,96462.16
2018-12-18T00:56:55.682Z,96463.92
2018-12-18T00:59:24.217Z,96465.73
2018-12-18T01:01:59.586Z,96466.73
2018-12-18T01:04:28.130Z,96463.83
2018-12-18T01:06:56.670Z,96464.08
2018-12-18T01:09:27.164Z,96467.36
2018-12-18T01:11:55.677Z,96469.02
2018-12-18T01:14:38.416Z,96468.45
2018-12-18T01:17:07.002Z,96469.41
2018-12-18T01:19:35.538Z,96471.22
2018-12-18T01:22:04.043Z,96473.36
2018-12-18T01:24:32.562Z,96476.40
2018-12-18T01:27:01.090Z,96474.86
2018-12-18T01:29:29.621Z,96476.03
2018-12-18T01:31:58.158Z,96480.55
2018-12-18T01:34:26.692Z,96479.95
2018-12-18T01:36:55.214Z,96480.72
2018-12-18T01:39:23.729Z,96475.39
2018-12-18T01:41:52.256Z,96475.81
2018-12-18T01:44:20.862Z,96466.95
2018-12-18T01:46:49.399Z,96463.36
2018-12-18T01:49:18.809Z,96463.27
2018-12-18T01:51:47.367Z,96465.53
2018-12-18T01:54:15.886Z,96463.99
2018-12-18T01:56:44.388Z,96458.23
2018-12-18T01:59:12.895Z,96461.98
2018-12-18T02:01:41.405Z,96460.27
2018-12-18T02:04:09.929Z,96456.53
2018-12-18T02:06:38.431Z,96457.11
2018-12-18T02:09:06.954Z,96454.29
2018-12-18T02:11:35.482Z,96448.31
2018-12-18T02:14:04.023Z,96449.65
2018-12-18T02:16:32.547Z,96446.09
2018-12-18T02:19:01.087Z,96447.07
2018-12-18T02:21:29.606Z,96450.56
2018-12-18T02:23:58.133Z,96444.67
2018-12-18T02:26:27.598Z,96443.28
2018-12-18T02:28:56.122Z,96438.37
2018-12-18T02:31:24.637Z,96435.10
2018-12-18T02:33:53.215Z,96432.83
2018-12-18T02:36:21.724Z,96429.34
2018-12-18T02:38:50.253Z,96426.36
2018-12-18T02:41:18.909Z,96426.78
2018-12-18T02:43:47.466Z,96430.00
2018-12-18T02:46:15.978Z,96431.74
2018-12-18T02:48:44.485Z,96431.92
2018-12-18T02:51:13.034Z,96430.88
2018-12-18T02:53:42.498Z,96426.45
2018-12-18T02:56:12.011Z,96425.03
2018-12-18T02:58:40.523Z,96424.30
2018-12-18T03:01:09.075Z,96424.71
2018-12-18T03:03:38.584Z,96424.56
2018-12-18T03:06:07.154Z,96420.36
2018-12-18T03:08:36.685Z,96420.41
2018-12-18T03:14:24.252Z,96415.24
2018-12-18T03:16:53.929Z,96413.19
2018-12-18T03:19:22.986Z,96401.88
2018-12-18T03:21:52.023Z,96405.20
2018-12-18T03:24:21.066Z,96404.42
2018-12-18T03:26:50.128Z,96403.59
2018-12-18T03:29:19.189Z,96405.75
2018-12-18T03:31:48.273Z,96402.16
2018-12-18T03:34:17.437Z,96398.79
2018-12-18T03:36:46.468Z,96402.42
2018-12-18T03:39:15.553Z,96398.11
2018-12-18T03:41:44.595Z,96396.31
2018-12-18T03:44:13.651Z,96394.59
2018-12-18T03:46:42.717Z,96394.64
2018-12-18T03:49:11.750Z,96391.43
2018-12-18T03:51:40.812Z,96393.75
2018-12-18T03:54:09.840Z,96383.28
2018-12-18T03:56:38.884Z,96379.23
2018-12-18T03:59:07.937Z,96381.73
2018-12-18T04:01:36.987Z,96378.59
2018-12-18T04:04:06.067Z,96381.00
2018-12-18T04:06:35.104Z,96377.47
2018-12-18T04:09:04.162Z,96378.28
2018-12-18T04:11:33.206Z,96382.50
2018-12-18T04:14:02.248Z,96383.36
2018-12-18T04:16:31.288Z,96389.50
2018-12-18T04:19:00.405Z,96390.89
2018-12-18T04:21:29.439Z,96399.00
2018-12-18T04:23:58.491Z,96409.03
2018-12-18T04:26:27.545Z,96411.36
2018-12-18T04:28:56.571Z,96408.22
2018-12-18T04:31:25.621Z,96403.56
2018-12-18T04:33:54.667Z,96398.23
2018-12-18T04:36:23.733Z,96404.00
2018-12-18T04:38:52.834Z,96397.25
2018-12-18T04:41:22.937Z,96395.11
2018-12-18T04:43:51.971Z,96388.29
2018-12-18T04:46:21.076Z,96392.77
2018-12-18T04:48:50.112Z,96392.16
2018-12-18T04:51:20.015Z,96392.78
2018-12-18T04:53:49.047Z,96391.55
2018-12-18T04:56:18.094Z,96394.77
2018-12-18T04:58:47.141Z,96392.14
2018-12-18T05:01:18.138Z,96392.59
2018-12-18T05:03:47.197Z,96392.31
2018-12-18T05:06:16.255Z,96389.20
2018-12-18T05:08:45.314Z,96388.13
2018-12-18T05:11:14.341Z,96387.30
2018-12-18T05:13:43.371Z,96394.34
2018-12-18T05:16:12.438Z,96382.91
2018-12-18T05:18:41.469Z,96380.32
2018-12-18T05:21:10.518Z,96381.17
2018-12-18T05:23:39.550Z,96384.44
2018-12-18T05:26:08.595Z,96379.57
2018-12-18T05:28:37.636Z,96384.12
2018-12-18T05:31:13.022Z,96380.59
2018-12-18T05:33:42.060Z,96386.22
2018-12-18T05:36:11.114Z,96385.41
2018-12-18T05:38:40.165Z,96386.49
2018-12-18T05:41:09.258Z,96391.18
2018-12-18T05:43:38.270Z,96389.52
2018-12-18T05:46:07.327Z,96390.73
2018-12-18T05:48:36.401Z,96392.81
2018-12-18T05:51:05.475Z,96397.93
2018-12-18T05:56:11.945Z,96409.72
2018-12-18T05:58:41.029Z,96404.28
2018-12-18T06:01:11.075Z,96405.53
2018-12-18T06:03:40.139Z,96408.86
2018-12-18T06:06:10.216Z,96409.70
2018-12-18T06:08:39.293Z,96405.16
2018-12-18T06:11:08.376Z,96403.86
2018-12-18T06:13:37.457Z,96411.52
2018-12-18T06:16:06.524Z,96409.42
2018-12-18T06:18:35.610Z,96405.23
2018-12-18T06:21:05.608Z,96403.35
2018-12-18T06:23:35.023Z,96401.04
2018-12-18T06:26:04.549Z,96407.41
2018-12-18T06:28:33.833Z,96411.94
2018-12-18T06:31:02.886Z,96407.41
2018-12-18T06:33:31.943Z,96403.13
2018-12-18T06:36:01.032Z,96405.54
2018-12-18T06:38:30.163Z,96404.77
2018-12-18T06:40:59.211Z,96411.39
2018-12-18T06:46:04.083Z,96415.92
2018-12-18T06:48:33.199Z,96413.44
2018-12-18T06:51:02.251Z,96413.86
2018-12-18T06:53:31.361Z,96413.09
2018-12-18T06:56:00.450Z,96410.36
2018-12-18T06:58:29.534Z,96416.59
2018-12-18T07:00:58.599Z,96410.43
2018-12-18T07:03:27.655Z,96409.25
2018-12-18T07:05:56.717Z,96406.96
2018-12-18T07:11:04.585Z,96401.53
2018-12-18T07:13:33.654Z,96402.91
2018-12-18T07:16:02.830Z,96400.95
2018-12-18T07:18:32.859Z,96406.83
2018-12-18T07:21:01.887Z,96410.06
2018-12-18T07:23:30.940Z,96412.96
2018-12-18T07:26:11.249Z,96414.13
2018-12-18T07:28:40.290Z,96412.11
2018-12-18T07:31:09.394Z,96416.34
2018-12-18T07:33:38.454Z,96413.84
2018-12-18T07:38:58.497Z,96421.11
2018-12-18T07:41:28.496Z,96418.31
2018-12-18T07:44:10.496Z,96421.58
2018-12-18T07:46:43.289Z,96417.90
2018-12-18T07:51:02.479Z,96426.27
2018-12-18T07:53:31.540Z,96417.53
2018-12-18T07:56:00.600Z,96419.06
2018-12-18T07:58:29.666Z,96421.39
2018-12-18T08:00:58.745Z,96423.43
2018-12-18T08:03:27.807Z,96421.42
2018-12-18T08:05:57.004Z,96415.69
2018-12-18T08:08:26.068Z,96416.96
2018-12-18T08:10:55.138Z,96419.28
2018-12-18T08:13:24.179Z,96419.28
2018-12-18T08:15:53.230Z,96415.81
2018-12-18T08:18:23.179Z,96420.65
2018-12-18T08:20:52.207Z,96408.92
2018-12-18T08:23:21.251Z,96401.53
2018-12-18T08:25:50.317Z,96397.25
2018-12-18T08:28:21.326Z,96392.36
2018-12-18T08:30:50.375Z,96391.84
2018-12-18T08:33:19.427Z,96379.09
2018-12-18T08:35:48.479Z,96375.41
2018-12-18T08:38:17.555Z,96381.10
2018-12-18T08:40:46.763Z,96376.59
2018-12-18T08:43:15.799Z,96380.58
2018-12-18T08:45:44.827Z,96373.06
2018-12-18T08:48:14.863Z,96370.64
2018-12-18T08:50:43.899Z,96370.01
2018-12-18T08:53:12.935Z,96368.06
2018-12-18T08:55:48.814Z,96368.11
2018-12-18T08:58:17.855Z,96370.53
2018-12-18T09:00:46.904Z,96360.31
2018-12-18T09:03:15.961Z,96357.00
2018-12-18T09:05:45.020Z,96354.58
2018-12-18T09:08:14.072Z,96350.16
2018-12-18T09:10:43.122Z,96350.56
2018-12-18T09:15:53.587Z,96343.21
2018-12-18T09:20:58.416Z,96327.43
2018-12-18T09:23:27.521Z,96321.73
2018-12-18T09:25:56.567Z,96316.03
2018-12-18T09:28:25.632Z,96317.17
2018-12-18T09:33:30.542Z,96302.90
2018-12-18T09:35:59.595Z,96301.76
2018-12-18T09:38:34.126Z,96301.64
2018-12-18T09:41:09.835Z,96298.31
2018-12-18T09:46:37.635Z,96300.68
2018-12-18T09:49:06.798Z,96294.61
2018-12-18T09:51:35.831Z,96290.52
2018-12-18T09:54:04.976Z,96301.00
2018-12-18T09:56:33.951Z,96297.67
2018-12-18T09:59:03.008Z,96293.03
2018-12-18T10:04:19.946Z,96280.78
2018-12-18T10:06:48.982Z,96278.50
2018-12-18T10:09:18.117Z,96276.84
2018-12-18T10:11:47.224Z,96281.90
2018-12-18T10:14:16.295Z,96279.93
2018-12-18T10:19:21.164Z,96268.58
2018-12-18T10:21:50.372Z,96268.23
2018-12-18T10:24:19.408Z,96261.69
2018-12-18T10:26:48.499Z,96266.87
2018-12-18T10:31:53.386Z,96270.45
2018-12-18T10:34:22.439Z,96262.06
2018-12-18T10:39:30.391Z,96253.25
2018-12-18T10:41:59.484Z,96244.86
2018-12-18T10:44:28.555Z,96244.17
2018-12-18T10:46:57.610Z,96240.68
2018-12-18T10:52:02.448Z,96224.91
2018-12-18T10:54:31.495Z,96232.47
2018-12-18T10:59:36.390Z,96227.20
2018-12-18T11:02:05.463Z,96216.68
2018-12-18T11:04:34.511Z,96220.65
2018-12-18T11:09:43.457Z,96218.05
2018-12-18T11:17:25.689Z,96212.09
2018-12-18T11:19:54.752Z,96205.34
2018-12-18T11:22:23.803Z,96204.13
2018-12-18T11:27:28.635Z,96186.38
2018-12-18T11:29:57.677Z,96182.41
2018-12-18T11:32:33.004Z,96176.17
2018-12-18T11:34:55.801Z,96172.53
2018-12-18T11:40:00.673Z,96152.50
2018-12-18T11:42:29.746Z,96152.34
2018-12-18T11:44:58.923Z,96142.96
2018-12-18T11:47:27.987Z,96144.44
2018-12-18T11:49:57.034Z,96145.20
2018-12-18T11:52:26.130Z,96145.22
2018-12-18T11:54:56.872Z,96139.06
2018-12-18T11:57:28.734Z,96128.84
2018-12-18T11:59:57.942Z,96120.42
2018-12-18T12:05:05.744Z,96109.94
2018-12-18T12:07:34.764Z,96106.75
2018-12-18T12:12:39.537Z,96100.38
2018-12-18T12:15:08.581Z,96089.50
2018-12-18T12:17:37.615Z,96083.56
2018-12-18T12:20:06.670Z,96083.39
2018-12-18T12:22:35.754Z,96081.93
2018-12-18T12:25:04.815Z,96078.00
2018-12-18T12:27:33.907Z,96079.55
2018-12-18T12:30:02.966Z,96084.08
2018-12-18T12:32:32.002Z,96086.65
2018-12-18T12:37:36.778Z,96078.02
2018-12-18T12:40:05.857Z,96072.48
2018-12-18T12:42:34.881Z,96070.38
2018-12-18T12:45:07.418Z,96073.34
2018-12-18T12:47:38.378Z,96069.47
2018-12-18T12:50:07.422Z,96065.05
2018-12-18T12:52:37.404Z,96055.09
2018-12-18T12:55:06.470Z,96044.63
2018-12-18T12:57:35.561Z,96034.05
2018-12-18T13:00:04.833Z,96034.80
2018-12-18T13:02:33.867Z,96035.25
2018-12-18T13:05:02.925Z,96032.97
2018-12-18T13:07:31.964Z,96040.19
2018-12-18T13:10:01.041Z,96046.69
2018-12-18T13:15:05.846Z,96026.64
2018-12-18T13:17:34.907Z,96027.02
2018-12-18T13:20:03.958Z,96026.02
2018-12-18T13:22:32.977Z,96020.47
2018-12-18T13:25:02.051Z,96005.02
2018-12-18T13:27:31.141Z,95999.16
2018-12-18T13:32:35.905Z,95993.25
2018-12-18T13:35:04.982Z,95987.56
2018-12-18T13:37:34.023Z,95984.27
2018-12-18T13:40:03.070Z,95983.90
2018-12-18T13:42:32.110Z,95981.19
2018-12-18T13:45:01.324Z,95970.67
2018-12-18T13:52:42.136Z,95960.17
2018-12-18T13:55:11.179Z,95950.66
2018-12-18T13:57:40.236Z,95948.73
2018-12-18T14:02:45.054Z,95952.58
2018-12-18T14:05:14.092Z,95964.50
2018-12-18T14:07:43.136Z,95975.99
2018-12-18T14:10:12.191Z,95967.27
2018-12-18T14:15:17.982Z,95951.64
2018-12-18T14:17:47.039Z,95952.90
2018-12-18T14:20:16.085Z,95951.45
2018-12-18T14:22:45.126Z,95944.58
2018-12-18T14:25:14.190Z,95939.20
2018-12-18T14:27:43.256Z,95929.99
2018-12-18T14:32:48.998Z,95910.53
2018-12-18T14:35:18.066Z,95916.31
2018-12-18T14:37:47.127Z,95910.85
2018-12-18T14:40:16.163Z,95911.77
2018-12-18T14:42:45.239Z,95910.81
2018-12-18T14:45:14.299Z,95905.11
2018-12-18T14:47:43.358Z,95898.74
2018-12-18T14:50:12.398Z,95894.09
2018-12-18T14:52:41.445Z,95892.74
2018-12-18T14:55:14.362Z,95889.74
2018-12-18T14:57:57.234Z,95900.00
2018-12-18T15:00:26.252Z,95897.73
2018-12-18T15:02:55.284Z,95886.34
2018-12-18T15:08:00.047Z,95883.69
2018-12-18T15:10:29.102Z,95880.50
2018-12-18T15:12:58.138Z,95870.05
2018-12-18T15:15:27.239Z,95861.16
2018-12-18T15:17:56.291Z,95856.73
2018-12-18T15:20:26.323Z,95855.22
2018-12-18T15:22:55.367Z,95858.52
2018-12-18T15:25:24.432Z,95861.39
2018-12-18T15:27:53.507Z,95873.16
2018-12-18T15:30:25.907Z,95869.98
2018-12-18T15:32:51.678Z,95863.46
2018-12-18T15:35:21.652Z,95865.94
2018-12-18T15:37:50.677Z,95862.69
2018-12-18T15:43:00.320Z,95866.75
2018-12-18T15:45:29.341Z,95868.22
2018-12-18T15:47:59.142Z,95867.74
2018-12-18T15:50:27.418Z,95870.55
2018-12-18T15:55:32.507Z,95854.08
2018-12-18T15:58:03.566Z,95849.05
2018-12-18T16:03:11.387Z,95855.70
2018-12-18T16:05:42.050Z,95853.28
2018-12-18T16:08:11.347Z,95852.41
2018-12-18T16:10:40.389Z,95851.19
2018-12-18T16:13:09.475Z,95852.06
2018-12-18T16:15:40.494Z,95854.55
2018-12-18T16:18:10.495Z,95860.14
2018-12-18T16:20:39.539Z,95866.64
2018-12-18T16:23:08.575Z,95863.17
2018-12-18T16:25:37.611Z,95860.72
2018-12-18T16:28:07.602Z,95856.55
2018-12-18T16:33:13.846Z,95855.12
2018-12-18T16:35:46.099Z,95860.66
2018-12-18T16:38:11.971Z,95858.69
2018-12-18T16:40:41.056Z,95858.98
2018-12-18T16:43:10.094Z,95851.98
2018-12-18T16:45:39.198Z,95853.05
2018-12-18T16:48:10.166Z,95858.34
2018-12-18T16:50:39.229Z,95853.52
2018-12-18T16:53:08.267Z,95854.87
2018-12-18T16:55:37.321Z,95852.36
2018-12-18T16:58:07.372Z,95852.05
2018-12-18T17:00:36.429Z,95850.86
2018-12-18T17:03:06.367Z,95852.63
2018-12-18T17:08:11.513Z,95855.50
2018-12-18T17:10:40.669Z,95858.09
2018-12-18T17:13:09.737Z,95857.45
2018-12-18T17:15:38.807Z,95861.92
2018-12-18T17:18:14.317Z,95860.83
2018-12-18T17:20:43.368Z,95859.33
2018-12-18T17:23:12.439Z,95859.73
2018-12-18T17:25:41.500Z,95854.73
2018-12-18T17:28:11.447Z,95856.91
2018-12-18T17:30:40.544Z,95849.63
2018-12-18T17:33:09.600Z,95849.09
2018-12-18T17:35:38.637Z,95844.71
2018-12-18T17:38:07.680Z,95844.47
2018-12-18T17:43:12.472Z,95834.11
2018-12-18T17:45:41.631Z,95828.16
2018-12-18T17:48:11.674Z,95829.22
2018-12-18T17:50:40.748Z,95823.39
2018-12-18T17:53:09.766Z,95828.27
2018-12-18T17:55:38.835Z,95832.02
2018-12-18T17:58:07.975Z,95830.79
2018-12-18T18:00:37.096Z,95833.20
2018-12-18T18:03:07.470Z,95838.10
2018-12-18T18:05:37.663Z,95838.14
2018-12-18T18:08:08.213Z,95848.08
2018-12-18T18:15:51.166Z,95850.86
2018-12-18T18:18:20.223Z,95851.02
2018-12-18T18:20:49.392Z,95848.80
2018-12-18T18:23:18.480Z,95854.27
2018-12-18T18:25:47.557Z,95854.72
2018-12-18T18:28:17.717Z,95848.61
2018-12-18T18:33:25.715Z,95838.67
2018-12-18T18:35:54.787Z,95829.09
2018-12-18T18:38:24.518Z,95828.41
2018-12-18T18:40:53.581Z,95827.70
2018-12-18T18:43:22.640Z,95822.13
2018-12-18T18:45:51.713Z,95821.28
2018-12-18T18:48:20.749Z,95824.74
2018-12-18T18:50:49.811Z,95813.84
2018-12-18T18:53:18.858Z,95810.92
2018-12-18T18:55:48.900Z,95812.12
2018-12-18T18:58:17.950Z,95810.47
2018-12-18T19:00:47.020Z,95804.07
2018-12-18T19:03:16.110Z,95804.50
2018-12-18T19:05:45.159Z,95803.79
2018-12-18T19:08:15.212Z,95805.66
2018-12-18T19:10:44.263Z,95797.16
2018-12-18T19:13:21.026Z,95788.09
2018-12-18T19:15:50.056Z,95779.95
2018-12-18T19:18:19.127Z,95775.66
2018-12-18T19:20:48.170Z,95776.42
2018-12-18T19:23:18.231Z,95775.81
2018-12-18T19:25:47.340Z,95785.69
2018-12-18T19:28:17.330Z,95790.80
2018-12-18T19:30:46.383Z,95782.09
2018-12-18T19:33:15.437Z,95769.41
2018-12-18T19:35:45.436Z,95764.67
2018-12-18T19:38:14.498Z,95770.18
2018-12-18T19:40:43.551Z,95766.65
2018-12-18T19:45:48.403Z,95758.69
2018-12-18T19:48:17.462Z,95752.36
2018-12-18T19:50:46.535Z,95745.70
2018-12-18T19:53:15.623Z,95748.31
2018-12-18T19:55:45.651Z,95743.47
2018-12-18T19:58:14.660Z,95741.66
2018-12-18T20:00:44.735Z,95741.91
2018-12-18T20:03:13.807Z,95742.00
2018-12-18T20:05:42.873Z,95742.10
2018-12-18T20:08:12.847Z,95740.66
2018-12-18T20:10:41.919Z,95743.45
2018-12-18T20:13:11.074Z,95745.10
2018-12-18T20:15:40.159Z,95749.50
2018-12-18T20:18:09.207Z,95750.81
2018-12-18T20:20:39.250Z,95751.14
2018-12-18T20:23:08.320Z,95756.48
2018-12-18T20:25:37.346Z,95751.27
2018-12-18T20:28:06.423Z,95754.52
2018-12-18T20:30:35.449Z,95756.98
2018-12-18T20:33:04.499Z,95758.14
2018-12-18T20:35:33.560Z,95753.34
2018-12-18T20:38:02.621Z,95753.00
2018-12-18T20:40:32.666Z,95759.75
2018-12-18T20:43:07.001Z,95754.82
2018-12-18T20:45:36.039Z,95755.44
2018-12-18T20:48:05.108Z,95759.77
2018-12-18T20:50:34.217Z,95753.09
2018-12-18T20:53:03.323Z,95755.30
2018-12-18T20:55:32.412Z,95747.73
2018-12-18T20:58:01.491Z,95747.50
2018-12-18T21:00:30.554Z,95736.52
2018-12-18T21:02:59.607Z,95736.53
2018-12-18T21:05:30.680Z,95733.08
2018-12-18T21:08:00.616Z,95723.16
2018-12-18T21:10:29.685Z,95711.62
2018-12-18T21:13:05.257Z,95705.83
2018-12-18T21:15:35.314Z,95704.53
2018-12-18T21:18:04.487Z,95705.99
2018-12-18T21:20:33.537Z,95703.91
2018-12-18T21:23:03.544Z,95708.31
2018-12-18T21:25:39.328Z,95704.78
2018-12-18T21:28:10.289Z,95702.48
2018-12-18T21:30:39.362Z,95705.67
2018-12-18T21:33:08.423Z,95718.21
2018-12-18T21:35:37.495Z,95726.14
2018-12-18T21:38:07.197Z,95729.97
2018-12-18T21:40:36.270Z,95735.39
2018-12-18T21:43:08.529Z,95730.85
2018-12-18T21:45:38.561Z,95731.66
2018-12-18T21:48:12.235Z,95733.81
2018-12-18T21:50:41.442Z,95719.36
2018-12-18T21:53:10.492Z,95705.44
2018-12-18T21:55:39.567Z,95699.22
2018-12-18T21:58:08.629Z,95685.97
2018-12-18T22:00:37.703Z,95670.70
2018-12-18T22:03:06.794Z,95683.67
2018-12-18T22:05:35.876Z,95695.20
2018-12-18T22:08:05.115Z,95677.01
2018-12-18T22:10:34.161Z,95657.66
2018-12-18T22:13:03.222Z,95651.30
2018-12-18T22:15:33.284Z,95637.38
2018-12-18T22:18:02.351Z,95633.19
2018-12-18T22:20:31.497Z,95631.34
2018-12-18T22:23:00.540Z,95627.82
2018-12-18T22:25:29.670Z,95621.71
2018-12-18T22:27:58.813Z,95615.56
2018-12-18T22:30:27.915Z,95606.62
2018-12-18T22:32:57.074Z,95598.70
2018-12-18T22:35:26.181Z,95588.72
2018-12-18T22:37:55.311Z,95590.02
2018-12-18T22:40:24.579Z,95588.70
2018-12-18T22:42:53.670Z,95591.35
2018-12-18T22:45:22.743Z,95591.39
2018-12-18T22:47:52.002Z,95598.41
2018-12-18T22:50:21.216Z,95592.83
2018-12-18T22:52:50.317Z,95598.31
2018-12-18T22:55:19.391Z,95604.69
2018-12-18T22:57:48.576Z,95609.49
2018-12-18T23:00:24.120Z,95606.49
2018-12-18T23:02:53.232Z,95604.53
2018-12-18T23:05:23.239Z,95602.74
2018-12-18T23:07:52.365Z,95606.00
2018-12-18T23:10:21.442Z,95608.20
2018-12-18T23:12:50.531Z,95608.30
2018-12-18T23:15:19.599Z,95612.13
2018-12-18T23:17:48.734Z,95615.98
2018-12-18T23:20:17.834Z,95604.13
2018-12-18T23:22:48.426Z,95592.04
2018-12-18T23:25:17.515Z,95588.44
2018-12-18T23:27:47.373Z,95583.84
2018-12-18T23:30:16.419Z,95575.48
2018-12-18T23:32:47.097Z,95564.70
2018-12-18T23:35:17.149Z,95556.78
2018-12-18T23:37:46.361Z,95561.01
2018-12-18T23:40:15.487Z,95558.30
2018-12-18T23:42:44.732Z,95562.98
2018-12-18T23:45:14.696Z,95555.00
2018-12-18T23:47:43.772Z,95551.17
2018-12-18T23:50:13.355Z,95545.88
2018-12-18T23:52:42.417Z,95545.53
2018-12-18T23:55:11.488Z,95537.05
2018-12-18T23:57:40.560Z,95529.50
